Amelia City, Florida
Current Conditions -  °F | °C
As of 1:55 PM on Sunday 23 Nov 2014 (Local Time) from KFHB Reporting Station
Broken Clouds Broken Clouds  
Wind Chill: 25°   Ceiling: 3600
Heat Index: 26°   Visibility: 5mi
Dew Point: 22°   Wind: 6mph
Humidity: 83%   Direction: 140°SE
Pressure: 29.87"   Gusts: NA
Location:  30.6056°N, 81.5268°W
Report Text: KFHB 231855Z AUTO 14005KT 5SM SCT026 BKN036 25/22 A2987 RMK AO1
Loading
Personal Weather Stations






























Interactive Weather Map New forecast layout! Learn more

10-Day Weather Forecast

Advertisements
Track Severe Weather on mobile